sensor_id;sensor_type;location;lat;lon;timestamp;temperature;humidity
68701;DHT22;55682;51.114;5.882;2023-05-10T00:01:56;16.36;83.24
68701;DHT22;55682;51.114;5.882;2023-05-10T00:04:22;16.36;83.15
68701;DHT22;55682;51.114;5.882;2023-05-10T00:06:47;16.34;82.76
68701;DHT22;55682;51.114;5.882;2023-05-10T00:09:13;16.30;82.71
68701;DHT22;55682;51.114;5.882;2023-05-10T00:11:39;16.21;83.04
68701;DHT22;55682;51.114;5.882;2023-05-10T00:14:04;16.17;83.17
68701;DHT22;55682;51.114;5.882;2023-05-10T00:16:30;16.06;83.71
68701;DHT22;55682;51.114;5.882;2023-05-10T00:18:56;16.02;84.02
68701;DHT22;55682;51.114;5.882;2023-05-10T00:21:21;15.99;84.32
68701;DHT22;55682;51.114;5.882;2023-05-10T00:23:47;16.00;84.63
68701;DHT22;55682;51.114;5.882;2023-05-10T00:26:13;16.00;84.80
68701;DHT22;55682;51.114;5.882;2023-05-10T00:28:41;15.97;84.71
68701;DHT22;55682;51.114;5.882;2023-05-10T00:31:07;15.95;84.64
68701;DHT22;55682;51.114;5.882;2023-05-10T00:33:32;15.93;84.58
68701;DHT22;55682;51.114;5.882;2023-05-10T00:35:58;15.91;84.71
68701;DHT22;55682;51.114;5.882;2023-05-10T00:38:23;15.95;85.00
68701;DHT22;55682;51.114;5.882;2023-05-10T00:40:49;15.95;84.68
68701;DHT22;55682;51.114;5.882;2023-05-10T00:43:23;15.91;84.58
68701;DHT22;55682;51.114;5.882;2023-05-10T00:45:49;15.90;84.78
68701;DHT22;55682;51.114;5.882;2023-05-10T00:48:15;15.89;84.94
68701;DHT22;55682;51.114;5.882;2023-05-10T00:50:41;15.90;84.84
68701;DHT22;55682;51.114;5.882;2023-05-10T00:53:07;15.90;84.76
68701;DHT22;55682;51.114;5.882;2023-05-10T00:55:33;15.91;84.68
68701;DHT22;55682;51.114;5.882;2023-05-10T00:57:59;15.92;84.34
68701;DHT22;55682;51.114;5.882;2023-05-10T01:00:25;15.91;84.42
68701;DHT22;55682;51.114;5.882;2023-05-10T01:02:53;15.96;84.41
68701;DHT22;55682;51.114;5.882;2023-05-10T01:05:19;15.92;84.43
68701;DHT22;55682;51.114;5.882;2023-05-10T01:07:45;15.95;84.42
68701;DHT22;55682;51.114;5.882;2023-05-10T01:10:10;15.96;84.52
68701;DHT22;55682;51.114;5.882;2023-05-10T01:12:39;15.96;84.31
68701;DHT22;55682;51.114;5.882;2023-05-10T01:15:07;15.95;84.28
68701;DHT22;55682;51.114;5.882;2023-05-10T01:17:35;15.96;84.28
68701;DHT22;55682;51.114;5.882;2023-05-10T01:20:03;15.93;84.00
68701;DHT22;55682;51.114;5.882;2023-05-10T01:25:44;15.91;84.35
68701;DHT22;55682;51.114;5.882;2023-05-10T01:36:30;15.81;84.58
68701;DHT22;55682;51.114;5.882;2023-05-10T01:39:32;15.81;85.16
68701;DHT22;55682;51.114;5.882;2023-05-10T01:42:11;15.85;85.29
68701;DHT22;55682;51.114;5.882;2023-05-10T01:47:44;15.89;84.71
68701;DHT22;55682;51.114;5.882;2023-05-10T01:50:17;15.88;84.83
68701;DHT22;55682;51.114;5.882;2023-05-10T01:52:49;15.87;85.16
68701;DHT22;55682;51.114;5.882;2023-05-10T01:55:20;15.84;85.33
68701;DHT22;55682;51.114;5.882;2023-05-10T01:58:04;15.81;85.28
68701;DHT22;55682;51.114;5.882;2023-05-10T02:00:32;15.78;85.58
68701;DHT22;55682;51.114;5.882;2023-05-10T02:03:00;15.81;85.58
68701;DHT22;55682;51.114;5.882;2023-05-10T02:05:29;15.81;85.61
68701;DHT22;55682;51.114;5.882;2023-05-10T02:07:58;15.82;85.47
68701;DHT22;55682;51.114;5.882;2023-05-10T02:10:27;15.81;85.27
68701;DHT22;55682;51.114;5.882;2023-05-10T02:12:58;15.77;85.24
68701;DHT22;55682;51.114;5.882;2023-05-10T02:15:26;15.74;85.30
68701;DHT22;55682;51.114;5.882;2023-05-10T02:17:54;15.71;85.34
68701;DHT22;55682;51.114;5.882;2023-05-10T02:20:23;15.72;85.60
68701;DHT22;55682;51.114;5.882;2023-05-10T02:22:53;15.74;85.47
68701;DHT22;55682;51.114;5.882;2023-05-10T02:25:21;15.74;85.24
68701;DHT22;55682;51.114;5.882;2023-05-10T02:27:50;15.72;85.43
68701;DHT22;55682;51.114;5.882;2023-05-10T02:30:18;15.73;85.17
68701;DHT22;55682;51.114;5.882;2023-05-10T02:32:45;15.74;85.21
68701;DHT22;55682;51.114;5.882;2023-05-10T02:35:12;15.71;85.08
68701;DHT22;55682;51.114;5.882;2023-05-10T02:37:39;15.70;85.29
68701;DHT22;55682;51.114;5.882;2023-05-10T02:40:07;15.75;85.09
68701;DHT22;55682;51.114;5.882;2023-05-10T02:42:36;15.74;85.03
68701;DHT22;55682;51.114;5.882;2023-05-10T02:45:08;15.75;85.05
68701;DHT22;55682;51.114;5.882;2023-05-10T02:47:36;15.70;85.03
68701;DHT22;55682;51.114;5.882;2023-05-10T02:50:02;15.71;85.00
68701;DHT22;55682;51.114;5.882;2023-05-10T02:52:39;15.69;84.90
68701;DHT22;55682;51.114;5.882;2023-05-10T02:55:05;15.62;85.22
68701;DHT22;55682;51.114;5.882;2023-05-10T02:57:41;15.54;85.09
68701;DHT22;55682;51.114;5.882;2023-05-10T03:00:08;15.53;85.25
68701;DHT22;55682;51.114;5.882;2023-05-10T03:02:34;15.47;85.43
68701;DHT22;55682;51.114;5.882;2023-05-10T03:05:01;15.47;85.61
68701;DHT22;55682;51.114;5.882;2023-05-10T03:07:28;15.47;85.40
68701;DHT22;55682;51.114;5.882;2023-05-10T03:09:55;15.48;85.58
68701;DHT22;55682;51.114;5.882;2023-05-10T03:15:25;15.49;85.14
68701;DHT22;55682;51.114;5.882;2023-05-10T03:18:04;15.53;85.02
68701;DHT22;55682;51.114;5.882;2023-05-10T03:20:55;15.53;84.58
68701;DHT22;55682;51.114;5.882;2023-05-10T03:23:30;15.51;84.35
68701;DHT22;55682;51.114;5.882;2023-05-10T03:26:00;15.46;84.32
68701;DHT22;55682;51.114;5.882;2023-05-10T03:28:27;15.39;84.19
68701;DHT22;55682;51.114;5.882;2023-05-10T03:30:53;15.34;84.07
68701;DHT22;55682;51.114;5.882;2023-05-10T03:33:20;15.29;84.26
68701;DHT22;55682;51.114;5.882;2023-05-10T03:35:46;15.28;84.08
68701;DHT22;55682;51.114;5.882;2023-05-10T03:38:12;15.30;84.20
68701;DHT22;55682;51.114;5.882;2023-05-10T03:40:38;15.28;84.15
68701;DHT22;55682;51.114;5.882;2023-05-10T03:43:04;15.25;84.10
68701;DHT22;55682;51.114;5.882;2023-05-10T03:45:30;15.23;84.16
68701;DHT22;55682;51.114;5.882;2023-05-10T03:47:57;15.27;83.97
68701;DHT22;55682;51.114;5.882;2023-05-10T03:50:23;15.26;83.67
68701;DHT22;55682;51.114;5.882;2023-05-10T03:52:49;15.23;83.98
68701;DHT22;55682;51.114;5.882;2023-05-10T03:55:15;15.23;83.94
68701;DHT22;55682;51.114;5.882;2023-05-10T03:57:42;15.26;83.86
68701;DHT22;55682;51.114;5.882;2023-05-10T04:00:08;15.22;83.88
68701;DHT22;55682;51.114;5.882;2023-05-10T04:02:43;15.25;83.57
68701;DHT22;55682;51.114;5.882;2023-05-10T04:05:14;15.23;83.61
68701;DHT22;55682;51.114;5.882;2023-05-10T04:07:40;15.18;83.84
68701;DHT22;55682;51.114;5.882;2023-05-10T04:10:06;15.17;84.26
68701;DHT22;55682;51.114;5.882;2023-05-10T04:12:32;15.19;84.19
68701;DHT22;55682;51.114;5.882;2023-05-10T04:14:57;15.22;84.21
68701;DHT22;55682;51.114;5.882;2023-05-10T04:17:23;15.26;84.29
68701;DHT22;55682;51.114;5.882;2023-05-10T04:19:48;15.26;83.97
68701;DHT22;55682;51.114;5.882;2023-05-10T04:22:14;15.28;83.73
68701;DHT22;55682;51.114;5.882;2023-05-10T04:24:39;15.28;84.10
68701;DHT22;55682;51.114;5.882;2023-05-10T04:27:05;15.26;84.28
68701;DHT22;55682;51.114;5.882;2023-05-10T04:29:31;15.30;84.48
68701;DHT22;55682;51.114;5.882;2023-05-10T04:31:56;15.36;83.82
68701;DHT22;55682;51.114;5.882;2023-05-10T04:34:22;15.34;83.79
68701;DHT22;55682;51.114;5.882;2023-05-10T04:36:47;15.32;83.74
68701;DHT22;55682;51.114;5.882;2023-05-10T04:39:13;15.38;83.77
68701;DHT22;55682;51.114;5.882;2023-05-10T04:41:39;15.38;83.79
68701;DHT22;55682;51.114;5.882;2023-05-10T04:44:04;15.37;83.80
68701;DHT22;55682;51.114;5.882;2023-05-10T04:46:30;15.38;83.58
68701;DHT22;55682;51.114;5.882;2023-05-10T04:48:56;15.37;83.61
68701;DHT22;55682;51.114;5.882;2023-05-10T04:51:21;15.39;83.76
68701;DHT22;55682;51.114;5.882;2023-05-10T04:53:47;15.38;83.96
68701;DHT22;55682;51.114;5.882;2023-05-10T04:56:12;15.41;83.88
68701;DHT22;55682;51.114;5.882;2023-05-10T04:58:38;15.42;83.69
68701;DHT22;55682;51.114;5.882;2023-05-10T05:01:07;15.48;83.63
68701;DHT22;55682;51.114;5.882;2023-05-10T05:03:33;15.43;83.83
68701;DHT22;55682;51.114;5.882;2023-05-10T05:05:59;15.41;83.67
68701;DHT22;55682;51.114;5.882;2023-05-10T05:08:25;15.44;83.69
68701;DHT22;55682;51.114;5.882;2023-05-10T05:10:51;15.44;83.73
68701;DHT22;55682;51.114;5.882;2023-05-10T05:13:16;15.46;83.76
68701;DHT22;55682;51.114;5.882;2023-05-10T05:15:42;15.48;83.63
68701;DHT22;55682;51.114;5.882;2023-05-10T05:18:07;15.52;83.54
68701;DHT22;55682;51.114;5.882;2023-05-10T05:20:33;15.53;83.17
68701;DHT22;55682;51.114;5.882;2023-05-10T05:23:00;15.54;83.36
68701;DHT22;55682;51.114;5.882;2023-05-10T05:25:25;15.60;83.40
68701;DHT22;55682;51.114;5.882;2023-05-10T05:27:51;15.66;83.16
68701;DHT22;55682;51.114;5.882;2023-05-10T05:30:17;15.68;82.93
68701;DHT22;55682;51.114;5.882;2023-05-10T05:32:42;15.72;82.77
68701;DHT22;55682;51.114;5.882;2023-05-10T05:35:08;15.73;82.48
68701;DHT22;55682;51.114;5.882;2023-05-10T05:37:34;15.74;82.51
68701;DHT22;55682;51.114;5.882;2023-05-10T05:40:01;15.76;82.25
68701;DHT22;55682;51.114;5.882;2023-05-10T05:42:27;15.83;82.22
68701;DHT22;55682;51.114;5.882;2023-05-10T05:44:52;15.91;81.82
68701;DHT22;55682;51.114;5.882;2023-05-10T05:47:18;15.92;81.33
68701;DHT22;55682;51.114;5.882;2023-05-10T05:49:43;15.88;81.23
68701;DHT22;55682;51.114;5.882;2023-05-10T05:52:11;15.85;81.17
68701;DHT22;55682;51.114;5.882;2023-05-10T05:54:37;15.81;81.14
68701;DHT22;55682;51.114;5.882;2023-05-10T05:57:02;15.82;81.32
68701;DHT22;55682;51.114;5.882;2023-05-10T05:59:28;15.84;80.56
68701;DHT22;55682;51.114;5.882;2023-05-10T06:01:54;15.76;80.89
68701;DHT22;55682;51.114;5.882;2023-05-10T06:04:20;15.80;81.12
68701;DHT22;55682;51.114;5.882;2023-05-10T06:06:45;15.85;81.10
68701;DHT22;55682;51.114;5.882;2023-05-10T06:09:11;15.90;80.68
68701;DHT22;55682;51.114;5.882;2023-05-10T06:11:37;15.92;80.50
68701;DHT22;55682;51.114;5.882;2023-05-10T06:14:04;15.97;80.49
68701;DHT22;55682;51.114;5.882;2023-05-10T06:16:30;16.05;80.31
68701;DHT22;55682;51.114;5.882;2023-05-10T06:18:56;16.19;80.04
68701;DHT22;55682;51.114;5.882;2023-05-10T06:21:22;16.40;79.58
68701;DHT22;55682;51.114;5.882;2023-05-10T06:23:47;16.61;78.85
68701;DHT22;55682;51.114;5.882;2023-05-10T06:26:13;16.92;78.42
68701;DHT22;55682;51.114;5.882;2023-05-10T06:28:39;17.31;77.46
68701;DHT22;55682;51.114;5.882;2023-05-10T06:31:06;17.73;76.41
68701;DHT22;55682;51.114;5.882;2023-05-10T06:33:32;18.18;75.08
68701;DHT22;55682;51.114;5.882;2023-05-10T06:35:58;18.67;73.78
68701;DHT22;55682;51.114;5.882;2023-05-10T06:38:24;19.80;72.84
68701;DHT22;55682;51.114;5.882;2023-05-10T06:40:50;21.34;67.01
68701;DHT22;55682;51.114;5.882;2023-05-10T06:43:16;21.82;62.79
68701;DHT22;55682;51.114;5.882;2023-05-10T06:45:41;21.83;61.28
68701;DHT22;55682;51.114;5.882;2023-05-10T06:48:07;21.75;61.02
68701;DHT22;55682;51.114;5.882;2023-05-10T06:50:33;21.53;61.12
68701;DHT22;55682;51.114;5.882;2023-05-10T06:52:59;21.39;61.60
68701;DHT22;55682;51.114;5.882;2023-05-10T06:55:25;21.50;61.54
68701;DHT22;55682;51.114;5.882;2023-05-10T06:57:51;21.53;60.57
68701;DHT22;55682;51.114;5.882;2023-05-10T07:00:18;21.44;59.88
68701;DHT22;55682;51.114;5.882;2023-05-10T07:02:44;21.24;59.57
68701;DHT22;55682;51.114;5.882;2023-05-10T07:05:09;21.08;59.96
68701;DHT22;55682;51.114;5.882;2023-05-10T07:07:35;20.80;59.81
68701;DHT22;55682;51.114;5.882;2023-05-10T07:10:01;20.45;60.51
68701;DHT22;55682;51.114;5.882;2023-05-10T07:12:27;20.21;60.76
68701;DHT22;55682;51.114;5.882;2023-05-10T07:14:53;19.92;60.99
68701;DHT22;55682;51.114;5.882;2023-05-10T07:17:18;19.68;62.10
68701;DHT22;55682;51.114;5.882;2023-05-10T07:19:44;19.53;62.50
68701;DHT22;55682;51.114;5.882;2023-05-10T07:22:09;19.40;63.17
68701;DHT22;55682;51.114;5.882;2023-05-10T07:24:35;19.22;63.73
68701;DHT22;55682;51.114;5.882;2023-05-10T07:27:01;19.13;63.95
68701;DHT22;55682;51.114;5.882;2023-05-10T07:29:27;19.05;64.38
68701;DHT22;55682;51.114;5.882;2023-05-10T07:31:54;18.92;64.81
68701;DHT22;55682;51.114;5.882;2023-05-10T07:34:19;18.82;65.27
68701;DHT22;55682;51.114;5.882;2023-05-10T07:36:45;18.80;65.89
68701;DHT22;55682;51.114;5.882;2023-05-10T07:39:11;18.73;65.67
68701;DHT22;55682;51.114;5.882;2023-05-10T07:41:37;18.67;66.59
68701;DHT22;55682;51.114;5.882;2023-05-10T07:44:04;18.59;66.14
68701;DHT22;55682;51.114;5.882;2023-05-10T07:46:30;18.43;66.95
68701;DHT22;55682;51.114;5.882;2023-05-10T07:48:55;18.37;67.67
68701;DHT22;55682;51.114;5.882;2023-05-10T07:51:21;18.26;67.63
68701;DHT22;55682;51.114;5.882;2023-05-10T07:53:47;18.21;68.09
68701;DHT22;55682;51.114;5.882;2023-05-10T07:58:49;17.96;69.24
68701;DHT22;55682;51.114;5.882;2023-05-10T08:01:14;17.97;69.65
68701;DHT22;55682;51.114;5.882;2023-05-10T08:03:40;17.97;69.05
68701;DHT22;55682;51.114;5.882;2023-05-10T08:06:05;17.84;69.45
68701;DHT22;55682;51.114;5.882;2023-05-10T08:08:31;17.79;69.74
68701;DHT22;55682;51.114;5.882;2023-05-10T08:10:57;17.73;69.96
68701;DHT22;55682;51.114;5.882;2023-05-10T08:13:22;17.70;70.12
68701;DHT22;55682;51.114;5.882;2023-05-10T08:15:48;17.69;70.14
68701;DHT22;55682;51.114;5.882;2023-05-10T08:18:13;17.54;70.51
68701;DHT22;55682;51.114;5.882;2023-05-10T08:20:39;17.52;71.00
68701;DHT22;55682;51.114;5.882;2023-05-10T08:23:05;17.49;71.25
68701;DHT22;55682;51.114;5.882;2023-05-10T08:25:31;17.56;71.01
68701;DHT22;55682;51.114;5.882;2023-05-10T08:27:57;17.66;71.35
68701;DHT22;55682;51.114;5.882;2023-05-10T08:30:23;17.82;71.45
68701;DHT22;55682;51.114;5.882;2023-05-10T08:32:48;17.99;70.64
68701;DHT22;55682;51.114;5.882;2023-05-10T08:35:15;18.05;69.34
68701;DHT22;55682;51.114;5.882;2023-05-10T08:37:41;17.98;69.58
68701;DHT22;55682;51.114;5.882;2023-05-10T08:40:08;18.06;69.39
68701;DHT22;55682;51.114;5.882;2023-05-10T08:42:40;18.02;68.95
68701;DHT22;55682;51.114;5.882;2023-05-10T08:45:08;17.97;69.58
68701;DHT22;55682;51.114;5.882;2023-05-10T08:47:36;17.99;69.47
68701;DHT22;55682;51.114;5.882;2023-05-10T08:50:03;18.06;69.36
68701;DHT22;55682;51.114;5.882;2023-05-10T08:52:30;17.96;69.70
68701;DHT22;55682;51.114;5.882;2023-05-10T08:54:58;18.00;69.51
68701;DHT22;55682;51.114;5.882;2023-05-10T08:57:23;17.97;69.66
68701;DHT22;55682;51.114;5.882;2023-05-10T08:59:49;18.00;69.74
68701;DHT22;55682;51.114;5.882;2023-05-10T09:02:16;18.06;69.65
68701;DHT22;55682;51.114;5.882;2023-05-10T09:04:43;18.07;69.45
68701;DHT22;55682;51.114;5.882;2023-05-10T09:07:10;18.13;69.29
68701;DHT22;55682;51.114;5.882;2023-05-10T09:09:36;18.10;68.81
68701;DHT22;55682;51.114;5.882;2023-05-10T09:12:02;18.10;68.90
68701;DHT22;55682;51.114;5.882;2023-05-10T09:14:28;18.20;69.29
68701;DHT22;55682;51.114;5.882;2023-05-10T09:16:55;18.47;68.81
68701;DHT22;55682;51.114;5.882;2023-05-10T09:19:21;18.70;67.87
68701;DHT22;55682;51.114;5.882;2023-05-10T09:21:47;18.82;67.47
68701;DHT22;55682;51.114;5.882;2023-05-10T09:24:13;18.89;67.27
68701;DHT22;55682;51.114;5.882;2023-05-10T09:26:46;18.88;67.65
68701;DHT22;55682;51.114;5.882;2023-05-10T09:29:14;18.97;67.50
68701;DHT22;55682;51.114;5.882;2023-05-10T09:31:48;19.01;67.59
68701;DHT22;55682;51.114;5.882;2023-05-10T09:34:28;19.10;66.80
68701;DHT22;55682;51.114;5.882;2023-05-10T09:36:58;19.33;66.26
68701;DHT22;55682;51.114;5.882;2023-05-10T09:41:58;19.50;64.18
68701;DHT22;55682;51.114;5.882;2023-05-10T09:44:25;19.51;64.45
68701;DHT22;55682;51.114;5.882;2023-05-10T09:46:51;19.62;64.17
68701;DHT22;55682;51.114;5.882;2023-05-10T09:49:19;19.81;63.85
68701;DHT22;55682;51.114;5.882;2023-05-10T09:51:45;20.02;62.93
68701;DHT22;55682;51.114;5.882;2023-05-10T09:54:16;20.28;62.38
68701;DHT22;55682;51.114;5.882;2023-05-10T09:56:42;20.60;61.46
68701;DHT22;55682;51.114;5.882;2023-05-10T09:59:11;20.83;59.67
68701;DHT22;55682;51.114;5.882;2023-05-10T10:01:37;20.81;59.23
68701;DHT22;55682;51.114;5.882;2023-05-10T10:04:05;20.75;58.95
68701;DHT22;55682;51.114;5.882;2023-05-10T10:06:35;20.60;59.60
68701;DHT22;55682;51.114;5.882;2023-05-10T10:09:02;20.44;59.22
68701;DHT22;55682;51.114;5.882;2023-05-10T10:11:28;20.25;60.39
68701;DHT22;55682;51.114;5.882;2023-05-10T10:13:54;20.12;59.96
68701;DHT22;55682;51.114;5.882;2023-05-10T10:16:20;20.00;60.89
68701;DHT22;55682;51.114;5.882;2023-05-10T10:18:47;20.05;60.65
68701;DHT22;55682;51.114;5.882;2023-05-10T10:21:13;20.04;61.14
68701;DHT22;55682;51.114;5.882;2023-05-10T10:23:40;20.11;60.82
68701;DHT22;55682;51.114;5.882;2023-05-10T10:26:06;19.95;60.60
68701;DHT22;55682;51.114;5.882;2023-05-10T10:28:56;19.65;62.15
68701;DHT22;55682;51.114;5.882;2023-05-10T10:31:27;19.23;63.65
68701;DHT22;55682;51.114;5.882;2023-05-10T10:34:05;18.92;64.90
68701;DHT22;55682;51.114;5.882;2023-05-10T10:36:39;18.85;66.35
68701;DHT22;55682;51.114;5.882;2023-05-10T10:39:09;19.10;65.95
68701;DHT22;55682;51.114;5.882;2023-05-10T10:41:38;19.31;64.47
68701;DHT22;55682;51.114;5.882;2023-05-10T10:44:25;19.73;62.53
68701;DHT22;55682;51.114;5.882;2023-05-10T10:50:05;20.17;61.40
68701;DHT22;55682;51.114;5.882;2023-05-10T10:52:39;20.68;61.02
68701;DHT22;55682;51.114;5.882;2023-05-10T10:55:17;21.54;59.50
68701;DHT22;55682;51.114;5.882;2023-05-10T10:57:56;22.82;55.79
68701;DHT22;55682;51.114;5.882;2023-05-10T11:00:30;23.34;52.94
68701;DHT22;55682;51.114;5.882;2023-05-10T11:03:05;23.02;52.07
68701;DHT22;55682;51.114;5.882;2023-05-10T11:05:40;22.68;53.58
68701;DHT22;55682;51.114;5.882;2023-05-10T11:13:46;22.25;55.31
68701;DHT22;55682;51.114;5.882;2023-05-10T11:16:22;22.11;55.39
68701;DHT22;55682;51.114;5.882;2023-05-10T11:18:52;22.04;55.78
68701;DHT22;55682;51.114;5.882;2023-05-10T11:21:19;22.03;55.71
68701;DHT22;55682;51.114;5.882;2023-05-10T11:26:13;21.99;54.49
68701;DHT22;55682;51.114;5.882;2023-05-10T11:28:43;21.88;55.31
68701;DHT22;55682;51.114;5.882;2023-05-10T11:31:09;22.07;55.29
68701;DHT22;55682;51.114;5.882;2023-05-10T11:33:45;22.26;54.31
68701;DHT22;55682;51.114;5.882;2023-05-10T11:36:19;22.33;53.74
68701;DHT22;55682;51.114;5.882;2023-05-10T11:38:46;22.55;53.91
68701;DHT22;55682;51.114;5.882;2023-05-10T11:41:12;22.71;51.97
68701;DHT22;55682;51.114;5.882;2023-05-10T11:43:39;22.55;52.18
68701;DHT22;55682;51.114;5.882;2023-05-10T11:46:07;22.64;51.78
68701;DHT22;55682;51.114;5.882;2023-05-10T11:48:33;22.43;51.83
68701;DHT22;55682;51.114;5.882;2023-05-10T11:51:00;22.41;52.36
68701;DHT22;55682;51.114;5.882;2023-05-10T11:53:29;22.61;51.84
68701;DHT22;55682;51.114;5.882;2023-05-10T11:55:54;22.60;51.48
68701;DHT22;55682;51.114;5.882;2023-05-10T11:58:20;22.73;51.62
68701;DHT22;55682;51.114;5.882;2023-05-10T12:00:48;22.84;51.15
68701;DHT22;55682;51.114;5.882;2023-05-10T12:03:14;22.96;51.06
68701;DHT22;55682;51.114;5.882;2023-05-10T12:05:40;23.27;50.14
68701;DHT22;55682;51.114;5.882;2023-05-10T12:08:14;23.23;50.65
68701;DHT22;55682;51.114;5.882;2023-05-10T12:10:40;23.21;50.13
68701;DHT22;55682;51.114;5.882;2023-05-10T12:13:11;23.10;51.23
68701;DHT22;55682;51.114;5.882;2023-05-10T12:15:38;23.32;50.27
68701;DHT22;55682;51.114;5.882;2023-05-10T12:18:04;23.24;51.11
68701;DHT22;55682;51.114;5.882;2023-05-10T12:20:30;23.27;52.23
68701;DHT22;55682;51.114;5.882;2023-05-10T12:22:58;23.64;50.53
68701;DHT22;55682;51.114;5.882;2023-05-10T12:25:29;23.42;49.73
68701;DHT22;55682;51.114;5.882;2023-05-10T12:27:57;23.39;50.58
68701;DHT22;55682;51.114;5.882;2023-05-10T12:30:23;23.54;50.32
68701;DHT22;55682;51.114;5.882;2023-05-10T12:32:49;23.65;50.11
68701;DHT22;55682;51.114;5.882;2023-05-10T12:35:16;23.85;49.67
68701;DHT22;55682;51.114;5.882;2023-05-10T12:37:43;24.05;47.83
68701;DHT22;55682;51.114;5.882;2023-05-10T12:40:10;23.79;48.26
68701;DHT22;55682;51.114;5.882;2023-05-10T12:42:38;23.89;49.64
68701;DHT22;55682;51.114;5.882;2023-05-10T12:45:05;24.23;48.45
68701;DHT22;55682;51.114;5.882;2023-05-10T12:47:34;24.42;47.87
68701;DHT22;55682;51.114;5.882;2023-05-10T12:50:01;24.23;46.02
68701;DHT22;55682;51.114;5.882;2023-05-10T12:52:28;23.84;48.03
68701;DHT22;55682;51.114;5.882;2023-05-10T12:54:54;23.53;48.70
68701;DHT22;55682;51.114;5.882;2023-05-10T12:57:20;23.17;50.10
68701;DHT22;55682;51.114;5.882;2023-05-10T12:59:46;23.10;50.43
68701;DHT22;55682;51.114;5.882;2023-05-10T13:02:12;22.93;50.69
68701;DHT22;55682;51.114;5.882;2023-05-10T13:04:38;23.01;50.47
68701;DHT22;55682;51.114;5.882;2023-05-10T13:07:08;22.79;50.73
68701;DHT22;55682;51.114;5.882;2023-05-10T13:09:34;22.76;51.56
68701;DHT22;55682;51.114;5.882;2023-05-10T13:12:00;22.98;50.82
68701;DHT22;55682;51.114;5.882;2023-05-10T13:14:26;23.11;49.86
68701;DHT22;55682;51.114;5.882;2023-05-10T13:16:51;22.90;50.18
68701;DHT22;55682;51.114;5.882;2023-05-10T13:19:17;22.97;50.71
68701;DHT22;55682;51.114;5.882;2023-05-10T13:21:43;22.83;49.88
68701;DHT22;55682;51.114;5.882;2023-05-10T13:24:10;22.78;50.23
68701;DHT22;55682;51.114;5.882;2023-05-10T13:26:40;22.56;51.02
68701;DHT22;55682;51.114;5.882;2023-05-10T13:29:06;22.54;51.63
68701;DHT22;55682;51.114;5.882;2023-05-10T13:31:32;22.76;51.26
68701;DHT22;55682;51.114;5.882;2023-05-10T13:33:58;22.79;50.95
68701;DHT22;55682;51.114;5.882;2023-05-10T13:36:23;22.82;50.96
68701;DHT22;55682;51.114;5.882;2023-05-10T13:38:49;22.71;50.63
68701;DHT22;55682;51.114;5.882;2023-05-10T13:41:15;22.65;51.09
68701;DHT22;55682;51.114;5.882;2023-05-10T13:43:40;22.50;51.34
68701;DHT22;55682;51.114;5.882;2023-05-10T13:46:06;22.40;52.20
68701;DHT22;55682;51.114;5.882;2023-05-10T13:48:31;22.33;52.08
68701;DHT22;55682;51.114;5.882;2023-05-10T13:50:57;22.27;51.56
68701;DHT22;55682;51.114;5.882;2023-05-10T13:53:23;22.09;51.89
68701;DHT22;55682;51.114;5.882;2023-05-10T13:55:48;22.16;52.68
68701;DHT22;55682;51.114;5.882;2023-05-10T13:58:14;22.22;52.58
68701;DHT22;55682;51.114;5.882;2023-05-10T14:00:40;22.28;51.53
68701;DHT22;55682;51.114;5.882;2023-05-10T14:03:05;22.08;51.72
68701;DHT22;55682;51.114;5.882;2023-05-10T14:05:32;21.91;52.60
68701;DHT22;55682;51.114;5.882;2023-05-10T14:07:58;21.80;52.81
68701;DHT22;55682;51.114;5.882;2023-05-10T14:10:23;21.92;52.99
68701;DHT22;55682;51.114;5.882;2023-05-10T14:12:49;21.95;52.46
68701;DHT22;55682;51.114;5.882;2023-05-10T14:15:15;21.93;52.97
68701;DHT22;55682;51.114;5.882;2023-05-10T14:17:41;21.79;52.93
68701;DHT22;55682;51.114;5.882;2023-05-10T14:20:07;21.77;53.79
68701;DHT22;55682;51.114;5.882;2023-05-10T14:22:32;21.92;53.04
68701;DHT22;55682;51.114;5.882;2023-05-10T14:24:58;21.92;53.45
68701;DHT22;55682;51.114;5.882;2023-05-10T14:27:24;21.89;53.82
68701;DHT22;55682;51.114;5.882;2023-05-10T14:29:49;21.89;53.55
68701;DHT22;55682;51.114;5.882;2023-05-10T14:32:15;21.69;53.74
68701;DHT22;55682;51.114;5.882;2023-05-10T14:34:41;21.69;54.82
68701;DHT22;55682;51.114;5.882;2023-05-10T14:37:06;21.82;53.68
68701;DHT22;55682;51.114;5.882;2023-05-10T14:39:32;21.88;53.37
68701;DHT22;55682;51.114;5.882;2023-05-10T14:41:58;21.92;53.29
68701;DHT22;55682;51.114;5.882;2023-05-10T14:44:24;21.95;52.24
68701;DHT22;55682;51.114;5.882;2023-05-10T14:46:50;21.84;53.42
68701;DHT22;55682;51.114;5.882;2023-05-10T14:49:16;21.93;52.83
68701;DHT22;55682;51.114;5.882;2023-05-10T14:51:41;21.82;52.69
68701;DHT22;55682;51.114;5.882;2023-05-10T14:54:07;21.70;53.54
68701;DHT22;55682;51.114;5.882;2023-05-10T14:56:33;21.70;53.73
68701;DHT22;55682;51.114;5.882;2023-05-10T14:59:02;22.03;53.75
68701;DHT22;55682;51.114;5.882;2023-05-10T15:01:29;22.43;52.38
68701;DHT22;55682;51.114;5.882;2023-05-10T15:03:54;22.65;51.54
68701;DHT22;55682;51.114;5.882;2023-05-10T15:06:25;22.95;51.03
68701;DHT22;55682;51.114;5.882;2023-05-10T15:08:55;23.29;49.92
68701;DHT22;55682;51.114;5.882;2023-05-10T15:11:21;23.54;50.34
68701;DHT22;55682;51.114;5.882;2023-05-10T15:13:46;23.64;48.31
68701;DHT22;55682;51.114;5.882;2023-05-10T15:16:12;23.32;47.98
68701;DHT22;55682;51.114;5.882;2023-05-10T15:18:37;23.20;49.25
68701;DHT22;55682;51.114;5.882;2023-05-10T15:21:03;23.03;49.21
68701;DHT22;55682;51.114;5.882;2023-05-10T15:23:29;23.07;49.70
68701;DHT22;55682;51.114;5.882;2023-05-10T15:25:55;23.18;49.76
68701;DHT22;55682;51.114;5.882;2023-05-10T15:28:21;23.30;49.29
68701;DHT22;55682;51.114;5.882;2023-05-10T15:30:47;23.47;48.11
68701;DHT22;55682;51.114;5.882;2023-05-10T15:33:13;23.35;48.28
68701;DHT22;55682;51.114;5.882;2023-05-10T15:35:38;23.27;47.80
68701;DHT22;55682;51.114;5.882;2023-05-10T15:38:05;23.05;47.63
68701;DHT22;55682;51.114;5.882;2023-05-10T15:40:31;22.73;48.77
68701;DHT22;55682;51.114;5.882;2023-05-10T15:42:56;22.54;49.02
68701;DHT22;55682;51.114;5.882;2023-05-10T15:45:22;22.43;49.78
68701;DHT22;55682;51.114;5.882;2023-05-10T15:47:48;22.41;50.15
68701;DHT22;55682;51.114;5.882;2023-05-10T15:50:14;22.29;49.93
68701;DHT22;55682;51.114;5.882;2023-05-10T15:52:40;22.10;50.23
68701;DHT22;55682;51.114;5.882;2023-05-10T15:55:07;21.92;51.48
68701;DHT22;55682;51.114;5.882;2023-05-10T15:57:40;21.90;52.29
68701;DHT22;55682;51.114;5.882;2023-05-10T16:00:08;21.93;52.33
68701;DHT22;55682;51.114;5.882;2023-05-10T16:02:38;21.79;52.63
68701;DHT22;55682;51.114;5.882;2023-05-10T16:05:04;21.61;53.16